sensor_id;sensor_type;location;lat;lon;timestamp;P1;durP1;ratioP1;P2;durP2;ratioP2
18520;SDS011;9390;51.244;6.982;2022-09-27T00:02:03;24.63;;;8.40;;
18520;SDS011;9390;51.244;6.982;2022-09-27T00:04:34;44.75;;;10.27;;
18520;SDS011;9390;51.244;6.982;2022-09-27T00:07:05;39.35;;;12.50;;
18520;SDS011;9390;51.244;6.982;2022-09-27T00:09:37;44.97;;;14.07;;
18520;SDS011;9390;51.244;6.982;2022-09-27T00:12:08;41.28;;;13.82;;
18520;SDS011;9390;51.244;6.982;2022-09-27T00:14:40;40.03;;;13.82;;
18520;SDS011;9390;51.244;6.982;2022-09-27T00:17:12;40.90;;;11.35;;
18520;SDS011;9390;51.244;6.982;2022-09-27T00:19:44;31.80;;;10.07;;
18520;SDS011;9390;51.244;6.982;2022-09-27T00:22:16;30.02;;;7.93;;
18520;SDS011;9390;51.244;6.982;2022-09-27T00:24:47;35.67;;;8.63;;
18520;SDS011;9390;51.244;6.982;2022-09-27T00:27:18;30.08;;;7.82;;
18520;SDS011;9390;51.244;6.982;2022-09-27T00:29:50;26.45;;;7.03;;
18520;SDS011;9390;51.244;6.982;2022-09-27T00:32:22;31.67;;;7.45;;
18520;SDS011;9390;51.244;6.982;2022-09-27T00:34:54;22.88;;;5.15;;
18520;SDS011;9390;51.244;6.982;2022-09-27T00:37:25;20.73;;;4.93;;
18520;SDS011;9390;51.244;6.982;2022-09-27T00:39:57;14.02;;;4.20;;
18520;SDS011;9390;51.244;6.982;2022-09-27T00:42:28;23.63;;;4.50;;
18520;SDS011;9390;51.244;6.982;2022-09-27T00:45:01;16.52;;;4.40;;
18520;SDS011;9390;51.244;6.982;2022-09-27T00:47:37;19.77;;;4.78;;
18520;SDS011;9390;51.244;6.982;2022-09-27T00:50:14;17.63;;;4.65;;
18520;SDS011;9390;51.244;6.982;2022-09-27T00:52:54;19.65;;;5.07;;
18520;SDS011;9390;51.244;6.982;2022-09-27T00:55:32;16.35;;;5.10;;
18520;SDS011;9390;51.244;6.982;2022-09-27T00:58:05;23.23;;;5.68;;
18520;SDS011;9390;51.244;6.982;2022-09-27T01:00:37;23.05;;;6.40;;
18520;SDS011;9390;51.244;6.982;2022-09-27T01:03:14;29.73;;;6.78;;
18520;SDS011;9390;51.244;6.982;2022-09-27T01:05:49;24.83;;;6.85;;
18520;SDS011;9390;51.244;6.982;2022-09-27T01:08:20;29.08;;;8.13;;
18520;SDS011;9390;51.244;6.982;2022-09-27T01:10:54;36.33;;;9.48;;
18520;SDS011;9390;51.244;6.982;2022-09-27T01:13:34;29.20;;;8.98;;
18520;SDS011;9390;51.244;6.982;2022-09-27T01:16:09;23.30;;;8.90;;
18520;SDS011;9390;51.244;6.982;2022-09-27T01:18:47;36.72;;;9.55;;
18520;SDS011;9390;51.244;6.982;2022-09-27T01:24:19;31.95;;;8.68;;
18520;SDS011;9390;51.244;6.982;2022-09-27T01:27:11;21.50;;;9.00;;
18520;SDS011;9390;51.244;6.982;2022-09-27T01:33:11;26.90;;;8.73;;
18520;SDS011;9390;51.244;6.982;2022-09-27T01:35:55;27.45;;;9.32;;
18520;SDS011;9390;51.244;6.982;2022-09-27T01:38:38;37.25;;;8.75;;
18520;SDS011;9390;51.244;6.982;2022-09-27T01:41:14;19.90;;;8.00;;
18520;SDS011;9390;51.244;6.982;2022-09-27T01:43:54;30.75;;;8.38;;
18520;SDS011;9390;51.244;6.982;2022-09-27T01:46:32;22.20;;;8.13;;
18520;SDS011;9390;51.244;6.982;2022-09-27T01:49:07;27.98;;;7.80;;
18520;SDS011;9390;51.244;6.982;2022-09-27T01:51:41;23.25;;;8.13;;
18520;SDS011;9390;51.244;6.982;2022-09-27T01:54:15;19.50;;;7.30;;
18520;SDS011;9390;51.244;6.982;2022-09-27T01:56:49;22.67;;;7.88;;
18520;SDS011;9390;51.244;6.982;2022-09-27T01:59:23;27.73;;;7.93;;
18520;SDS011;9390;51.244;6.982;2022-09-27T02:02:01;23.15;;;7.18;;
18520;SDS011;9390;51.244;6.982;2022-09-27T02:04:35;18.38;;;7.35;;
18520;SDS011;9390;51.244;6.982;2022-09-27T02:07:09;21.45;;;7.95;;
18520;SDS011;9390;51.244;6.982;2022-09-27T02:09:43;24.23;;;7.47;;
18520;SDS011;9390;51.244;6.982;2022-09-27T02:12:18;23.40;;;7.75;;
18520;SDS011;9390;51.244;6.982;2022-09-27T02:14:52;19.13;;;6.93;;
18520;SDS011;9390;51.244;6.982;2022-09-27T02:17:28;25.83;;;6.95;;
18520;SDS011;9390;51.244;6.982;2022-09-27T02:20:03;22.02;;;6.78;;
18520;SDS011;9390;51.244;6.982;2022-09-27T02:22:39;19.40;;;6.82;;
18520;SDS011;9390;51.244;6.982;2022-09-27T02:25:14;21.85;;;7.15;;
18520;SDS011;9390;51.244;6.982;2022-09-27T02:27:51;22.23;;;7.07;;
18520;SDS011;9390;51.244;6.982;2022-09-27T02:30:25;20.55;;;7.22;;
18520;SDS011;9390;51.244;6.982;2022-09-27T02:32:58;27.70;;;7.72;;
18520;SDS011;9390;51.244;6.982;2022-09-27T02:35:30;21.27;;;8.55;;
18520;SDS011;9390;51.244;6.982;2022-09-27T02:38:03;20.02;;;8.30;;
18520;SDS011;9390;51.244;6.982;2022-09-27T02:40:41;22.65;;;7.93;;
18520;SDS011;9390;51.244;6.982;2022-09-27T02:43:13;29.88;;;8.60;;
18520;SDS011;9390;51.244;6.982;2022-09-27T02:45:50;29.70;;;9.88;;
18520;SDS011;9390;51.244;6.982;2022-09-27T02:48:27;27.52;;;8.98;;
18520;SDS011;9390;51.244;6.982;2022-09-27T02:51:08;22.77;;;8.88;;
18520;SDS011;9390;51.244;6.982;2022-09-27T02:53:48;26.02;;;9.98;;
18520;SDS011;9390;51.244;6.982;2022-09-27T02:56:29;30.10;;;9.52;;
18520;SDS011;9390;51.244;6.982;2022-09-27T02:59:05;34.08;;;11.05;;
18520;SDS011;9390;51.244;6.982;2022-09-27T03:01:45;27.67;;;10.63;;
18520;SDS011;9390;51.244;6.982;2022-09-27T03:04:22;26.00;;;10.30;;
18520;SDS011;9390;51.244;6.982;2022-09-27T03:06:56;26.42;;;10.88;;
18520;SDS011;9390;51.244;6.982;2022-09-27T03:09:38;36.10;;;11.15;;
18520;SDS011;9390;51.244;6.982;2022-09-27T03:12:11;27.83;;;10.57;;
18520;SDS011;9390;51.244;6.982;2022-09-27T03:14:42;27.23;;;10.02;;
18520;SDS011;9390;51.244;6.982;2022-09-27T03:17:13;29.20;;;10.85;;
18520;SDS011;9390;51.244;6.982;2022-09-27T03:19:47;25.52;;;10.60;;
18520;SDS011;9390;51.244;6.982;2022-09-27T03:22:18;26.95;;;10.27;;
18520;SDS011;9390;51.244;6.982;2022-09-27T03:24:49;22.83;;;9.80;;
18520;SDS011;9390;51.244;6.982;2022-09-27T03:27:21;26.77;;;10.15;;
18520;SDS011;9390;51.244;6.982;2022-09-27T03:29:53;24.05;;;9.32;;
18520;SDS011;9390;51.244;6.982;2022-09-27T03:32:24;22.95;;;9.82;;
18520;SDS011;9390;51.244;6.982;2022-09-27T03:34:57;27.80;;;10.02;;
18520;SDS011;9390;51.244;6.982;2022-09-27T03:37:28;24.45;;;8.93;;
18520;SDS011;9390;51.244;6.982;2022-09-27T03:40:00;24.52;;;8.38;;
18520;SDS011;9390;51.244;6.982;2022-09-27T03:42:31;21.30;;;8.55;;
18520;SDS011;9390;51.244;6.982;2022-09-27T03:45:03;22.75;;;8.00;;
18520;SDS011;9390;51.244;6.982;2022-09-27T03:47:38;19.33;;;8.57;;
18520;SDS011;9390;51.244;6.982;2022-09-27T03:50:11;28.00;;;9.10;;
18520;SDS011;9390;51.244;6.982;2022-09-27T03:52:42;20.30;;;8.23;;
18520;SDS011;9390;51.244;6.982;2022-09-27T03:55:14;17.08;;;8.57;;
18520;SDS011;9390;51.244;6.982;2022-09-27T03:57:46;22.80;;;7.90;;
18520;SDS011;9390;51.244;6.982;2022-09-27T04:00:17;19.23;;;8.02;;
18520;SDS011;9390;51.244;6.982;2022-09-27T04:02:49;24.38;;;6.88;;
18520;SDS011;9390;51.244;6.982;2022-09-27T04:05:22;19.08;;;7.45;;
18520;SDS011;9390;51.244;6.982;2022-09-27T04:07:54;20.85;;;6.57;;
18520;SDS011;9390;51.244;6.982;2022-09-27T04:10:25;18.30;;;7.43;;
18520;SDS011;9390;51.244;6.982;2022-09-27T04:12:56;18.02;;;6.18;;
18520;SDS011;9390;51.244;6.982;2022-09-27T04:15:28;21.23;;;7.03;;
18520;SDS011;9390;51.244;6.982;2022-09-27T04:18:00;15.80;;;7.07;;
18520;SDS011;9390;51.244;6.982;2022-09-27T04:20:33;15.40;;;6.20;;
18520;SDS011;9390;51.244;6.982;2022-09-27T04:23:05;16.70;;;6.43;;
18520;SDS011;9390;51.244;6.982;2022-09-27T04:25:36;16.52;;;6.55;;
18520;SDS011;9390;51.244;6.982;2022-09-27T04:28:08;21.63;;;6.43;;
18520;SDS011;9390;51.244;6.982;2022-09-27T04:30:40;19.83;;;6.90;;
18520;SDS011;9390;51.244;6.982;2022-09-27T04:33:11;15.70;;;6.25;;
18520;SDS011;9390;51.244;6.982;2022-09-27T04:35:44;18.63;;;6.90;;
18520;SDS011;9390;51.244;6.982;2022-09-27T04:38:33;19.13;;;6.53;;
18520;SDS011;9390;51.244;6.982;2022-09-27T04:41:05;17.30;;;5.40;;
18520;SDS011;9390;51.244;6.982;2022-09-27T04:43:37;16.77;;;5.80;;
18520;SDS011;9390;51.244;6.982;2022-09-27T04:46:08;17.05;;;6.38;;
18520;SDS011;9390;51.244;6.982;2022-09-27T04:48:39;21.67;;;6.32;;
18520;SDS011;9390;51.244;6.982;2022-09-27T04:51:12;15.10;;;5.45;;
18520;SDS011;9390;51.244;6.982;2022-09-27T04:53:46;22.48;;;6.18;;
18520;SDS011;9390;51.244;6.982;2022-09-27T04:56:17;15.55;;;5.15;;
18520;SDS011;9390;51.244;6.982;2022-09-27T04:58:49;19.58;;;5.72;;
18520;SDS011;9390;51.244;6.982;2022-09-27T05:01:20;15.98;;;5.80;;
18520;SDS011;9390;51.244;6.982;2022-09-27T05:03:52;12.32;;;4.38;;
18520;SDS011;9390;51.244;6.982;2022-09-27T05:06:25;15.07;;;4.57;;
18520;SDS011;9390;51.244;6.982;2022-09-27T05:08:56;16.35;;;4.75;;
18520;SDS011;9390;51.244;6.982;2022-09-27T05:11:28;18.73;;;4.45;;
18520;SDS011;9390;51.244;6.982;2022-09-27T05:13:59;17.73;;;4.10;;
18520;SDS011;9390;51.244;6.982;2022-09-27T05:16:32;11.70;;;4.10;;
18520;SDS011;9390;51.244;6.982;2022-09-27T05:19:05;14.00;;;3.63;;
18520;SDS011;9390;51.244;6.982;2022-09-27T05:21:37;9.20;;;3.40;;
18520;SDS011;9390;51.244;6.982;2022-09-27T05:24:16;12.95;;;4.22;;
18520;SDS011;9390;51.244;6.982;2022-09-27T05:26:47;12.70;;;3.33;;
18520;SDS011;9390;51.244;6.982;2022-09-27T05:29:19;15.15;;;3.50;;
18520;SDS011;9390;51.244;6.982;2022-09-27T05:31:50;11.02;;;3.40;;
18520;SDS011;9390;51.244;6.982;2022-09-27T05:34:21;13.23;;;3.60;;
18520;SDS011;9390;51.244;6.982;2022-09-27T05:36:55;13.45;;;3.92;;
18520;SDS011;9390;51.244;6.982;2022-09-27T05:39:26;16.77;;;3.60;;
18520;SDS011;9390;51.244;6.982;2022-09-27T05:41:58;8.25;;;3.50;;
18520;SDS011;9390;51.244;6.982;2022-09-27T05:44:29;10.27;;;3.05;;
18520;SDS011;9390;51.244;6.982;2022-09-27T05:47:01;9.32;;;4.00;;
18520;SDS011;9390;51.244;6.982;2022-09-27T05:49:33;17.85;;;3.20;;
18520;SDS011;9390;51.244;6.982;2022-09-27T05:52:07;12.18;;;3.15;;
18520;SDS011;9390;51.244;6.982;2022-09-27T05:54:38;13.45;;;3.05;;
18520;SDS011;9390;51.244;6.982;2022-09-27T05:57:10;14.40;;;3.15;;
18520;SDS011;9390;51.244;6.982;2022-09-27T05:59:41;8.80;;;3.33;;
18520;SDS011;9390;51.244;6.982;2022-09-27T06:02:12;10.82;;;2.97;;
18520;SDS011;9390;51.244;6.982;2022-09-27T06:04:44;10.32;;;2.50;;
18520;SDS011;9390;51.244;6.982;2022-09-27T06:07:16;12.60;;;2.60;;
18520;SDS011;9390;51.244;6.982;2022-09-27T06:09:48;9.43;;;2.60;;
18520;SDS011;9390;51.244;6.982;2022-09-27T06:12:19;8.77;;;2.58;;
18520;SDS011;9390;51.244;6.982;2022-09-27T06:14:51;6.47;;;2.80;;
18520;SDS011;9390;51.244;6.982;2022-09-27T06:17:22;12.50;;;3.20;;
18520;SDS011;9390;51.244;6.982;2022-09-27T06:19:53;11.63;;;3.10;;
18520;SDS011;9390;51.244;6.982;2022-09-27T06:22:26;8.10;;;2.88;;
18520;SDS011;9390;51.244;6.982;2022-09-27T06:24:57;14.30;;;3.42;;
18520;SDS011;9390;51.244;6.982;2022-09-27T06:27:29;9.35;;;3.30;;
18520;SDS011;9390;51.244;6.982;2022-09-27T06:30:00;12.80;;;3.30;;
18520;SDS011;9390;51.244;6.982;2022-09-27T06:32:31;15.25;;;3.88;;
18520;SDS011;9390;51.244;6.982;2022-09-27T06:35:03;12.60;;;3.50;;
18520;SDS011;9390;51.244;6.982;2022-09-27T06:37:37;11.85;;;3.47;;
18520;SDS011;9390;51.244;6.982;2022-09-27T06:40:08;12.73;;;3.58;;
18520;SDS011;9390;51.244;6.982;2022-09-27T06:42:40;10.45;;;3.40;;
18520;SDS011;9390;51.244;6.982;2022-09-27T06:45:11;5.93;;;2.40;;
18520;SDS011;9390;51.244;6.982;2022-09-27T06:47:43;12.27;;;2.45;;
18520;SDS011;9390;51.244;6.982;2022-09-27T06:50:15;10.10;;;2.50;;
18520;SDS011;9390;51.244;6.982;2022-09-27T06:52:48;9.95;;;2.63;;
18520;SDS011;9390;51.244;6.982;2022-09-27T06:55:20;6.70;;;2.25;;
18520;SDS011;9390;51.244;6.982;2022-09-27T06:57:52;8.93;;;2.20;;
18520;SDS011;9390;51.244;6.982;2022-09-27T07:00:42;12.80;;;2.80;;
18520;SDS011;9390;51.244;6.982;2022-09-27T07:03:15;9.52;;;2.67;;
18520;SDS011;9390;51.244;6.982;2022-09-27T07:05:53;10.48;;;2.80;;
18520;SDS011;9390;51.244;6.982;2022-09-27T07:08:27;12.23;;;2.92;;
18520;SDS011;9390;51.244;6.982;2022-09-27T07:10:59;13.57;;;3.50;;
18520;SDS011;9390;51.244;6.982;2022-09-27T07:13:32;13.23;;;3.08;;
18520;SDS011;9390;51.244;6.982;2022-09-27T07:16:10;11.45;;;3.45;;
18520;SDS011;9390;51.244;6.982;2022-09-27T07:18:42;10.73;;;3.70;;
18520;SDS011;9390;51.244;6.982;2022-09-27T07:21:13;9.35;;;3.85;;
18520;SDS011;9390;51.244;6.982;2022-09-27T07:23:47;14.50;;;3.47;;
18520;SDS011;9390;51.244;6.982;2022-09-27T07:26:18;11.63;;;3.00;;
18520;SDS011;9390;51.244;6.982;2022-09-27T07:28:49;9.50;;;3.30;;
18520;SDS011;9390;51.244;6.982;2022-09-27T07:31:22;10.50;;;3.03;;
18520;SDS011;9390;51.244;6.982;2022-09-27T07:33:53;13.85;;;3.20;;
18520;SDS011;9390;51.244;6.982;2022-09-27T07:36:25;10.25;;;4.28;;
18520;SDS011;9390;51.244;6.982;2022-09-27T07:38:58;10.93;;;3.97;;
18520;SDS011;9390;51.244;6.982;2022-09-27T07:41:30;11.02;;;4.15;;
18520;SDS011;9390;51.244;6.982;2022-09-27T07:44:02;13.30;;;4.07;;
18520;SDS011;9390;51.244;6.982;2022-09-27T07:46:34;10.90;;;4.45;;
18520;SDS011;9390;51.244;6.982;2022-09-27T07:49:06;10.27;;;3.70;;
18520;SDS011;9390;51.244;6.982;2022-09-27T07:51:37;8.63;;;3.28;;
18520;SDS011;9390;51.244;6.982;2022-09-27T07:54:10;9.90;;;2.83;;
18520;SDS011;9390;51.244;6.982;2022-09-27T07:56:42;9.68;;;2.20;;
18520;SDS011;9390;51.244;6.982;2022-09-27T07:59:14;10.85;;;2.70;;
18520;SDS011;9390;51.244;6.982;2022-09-27T08:01:46;10.32;;;2.13;;
18520;SDS011;9390;51.244;6.982;2022-09-27T08:04:17;6.15;;;2.20;;
18520;SDS011;9390;51.244;6.982;2022-09-27T08:06:49;6.88;;;2.30;;
18520;SDS011;9390;51.244;6.982;2022-09-27T08:09:21;7.05;;;1.80;;
18520;SDS011;9390;51.244;6.982;2022-09-27T08:11:55;4.45;;;1.70;;
18520;SDS011;9390;51.244;6.982;2022-09-27T08:14:27;5.72;;;2.00;;
18520;SDS011;9390;51.244;6.982;2022-09-27T08:16:58;6.15;;;1.75;;
18520;SDS011;9390;51.244;6.982;2022-09-27T08:19:30;8.77;;;1.80;;
18520;SDS011;9390;51.244;6.982;2022-09-27T08:22:02;7.60;;;2.33;;
18520;SDS011;9390;51.244;6.982;2022-09-27T08:24:34;9.60;;;2.08;;
18520;SDS011;9390;51.244;6.982;2022-09-27T08:27:06;4.18;;;1.67;;
18520;SDS011;9390;51.244;6.982;2022-09-27T08:29:38;4.50;;;1.63;;
18520;SDS011;9390;51.244;6.982;2022-09-27T08:32:10;5.18;;;1.50;;
18520;SDS011;9390;51.244;6.982;2022-09-27T08:34:42;6.65;;;1.73;;
18520;SDS011;9390;51.244;6.982;2022-09-27T08:37:14;5.45;;;1.60;;
18520;SDS011;9390;51.244;6.982;2022-09-27T08:39:47;6.40;;;1.73;;
18520;SDS011;9390;51.244;6.982;2022-09-27T08:42:22;3.97;;;1.85;;
18520;SDS011;9390;51.244;6.982;2022-09-27T08:45:00;4.75;;;1.70;;
18520;SDS011;9390;51.244;6.982;2022-09-27T08:47:34;5.43;;;1.65;;
18520;SDS011;9390;51.244;6.982;2022-09-27T08:50:09;6.68;;;1.77;;
18520;SDS011;9390;51.244;6.982;2022-09-27T08:52:50;5.88;;;1.70;;
18520;SDS011;9390;51.244;6.982;2022-09-27T08:55:26;6.93;;;1.80;;
18520;SDS011;9390;51.244;6.982;2022-09-27T08:58:01;4.45;;;1.80;;
18520;SDS011;9390;51.244;6.982;2022-09-27T09:00:34;7.38;;;1.98;;
18520;SDS011;9390;51.244;6.982;2022-09-27T09:03:07;6.03;;;1.67;;
18520;SDS011;9390;51.244;6.982;2022-09-27T09:05:50;5.43;;;1.87;;
18520;SDS011;9390;51.244;6.982;2022-09-27T09:08:29;6.90;;;1.95;;
18520;SDS011;9390;51.244;6.982;2022-09-27T09:11:06;4.82;;;1.80;;
18520;SDS011;9390;51.244;6.982;2022-09-27T09:14:04;8.40;;;2.38;;
18520;SDS011;9390;51.244;6.982;2022-09-27T09:16:44;4.05;;;2.00;;
18520;SDS011;9390;51.244;6.982;2022-09-27T09:19:26;3.22;;;1.50;;
18520;SDS011;9390;51.244;6.982;2022-09-27T09:22:09;6.00;;;1.77;;
18520;SDS011;9390;51.244;6.982;2022-09-27T09:24:49;4.57;;;1.92;;
18520;SDS011;9390;51.244;6.982;2022-09-27T09:27:27;5.38;;;1.85;;
18520;SDS011;9390;51.244;6.982;2022-09-27T09:30:17;6.72;;;2.40;;
18520;SDS011;9390;51.244;6.982;2022-09-27T09:32:54;6.75;;;2.50;;
18520;SDS011;9390;51.244;6.982;2022-09-27T09:35:33;6.45;;;2.40;;
18520;SDS011;9390;51.244;6.982;2022-09-27T09:38:09;6.18;;;2.50;;
18520;SDS011;9390;51.244;6.982;2022-09-27T09:40:45;6.18;;;3.03;;
18520;SDS011;9390;51.244;6.982;2022-09-27T09:43:21;12.77;;;4.10;;
18520;SDS011;9390;51.244;6.982;2022-09-27T09:45:55;7.05;;;3.55;;
18520;SDS011;9390;51.244;6.982;2022-09-27T09:48:31;10.10;;;4.43;;
18520;SDS011;9390;51.244;6.982;2022-09-27T09:51:10;14.45;;;4.75;;
18520;SDS011;9390;51.244;6.982;2022-09-27T09:53:47;12.07;;;4.80;;
18520;SDS011;9390;51.244;6.982;2022-09-27T09:56:22;10.85;;;4.40;;
18520;SDS011;9390;51.244;6.982;2022-09-27T09:58:57;12.18;;;4.53;;
18520;SDS011;9390;51.244;6.982;2022-09-27T10:01:32;13.02;;;4.63;;
18520;SDS011;9390;51.244;6.982;2022-09-27T10:04:06;8.75;;;4.72;;
18520;SDS011;9390;51.244;6.982;2022-09-27T10:06:37;9.55;;;4.85;;
18520;SDS011;9390;51.244;6.982;2022-09-27T10:09:09;13.90;;;5.00;;
18520;SDS011;9390;51.244;6.982;2022-09-27T10:11:44;9.38;;;5.10;;
18520;SDS011;9390;51.244;6.982;2022-09-27T10:14:19;8.70;;;4.70;;
18520;SDS011;9390;51.244;6.982;2022-09-27T10:16:52;16.05;;;5.47;;
18520;SDS011;9390;51.244;6.982;2022-09-27T10:19:27;11.68;;;5.82;;
18520;SDS011;9390;51.244;6.982;2022-09-27T10:22:01;11.68;;;5.60;;
18520;SDS011;9390;51.244;6.982;2022-09-27T10:24:35;10.55;;;5.82;;
18520;SDS011;9390;51.244;6.982;2022-09-27T10:27:23;9.80;;;5.32;;
18520;SDS011;9390;51.244;6.982;2022-09-27T10:29:58;11.93;;;5.00;;
18520;SDS011;9390;51.244;6.982;2022-09-27T10:32:30;9.77;;;4.95;;
18520;SDS011;9390;51.244;6.982;2022-09-27T10:35:18;11.20;;;4.40;;
18520;SDS011;9390;51.244;6.982;2022-09-27T10:37:50;10.80;;;3.95;;
18520;SDS011;9390;51.244;6.982;2022-09-27T10:40:26;10.45;;;4.28;;
18520;SDS011;9390;51.244;6.982;2022-09-27T10:42:59;10.80;;;3.80;;
18520;SDS011;9390;51.244;6.982;2022-09-27T10:45:32;8.90;;;4.50;;
18520;SDS011;9390;51.244;6.982;2022-09-27T10:48:04;10.10;;;4.03;;
18520;SDS011;9390;51.244;6.982;2022-09-27T10:50:36;11.05;;;4.53;;
18520;SDS011;9390;51.244;6.982;2022-09-27T10:53:11;8.38;;;3.55;;
18520;SDS011;9390;51.244;6.982;2022-09-27T10:55:45;6.15;;;2.92;;
18520;SDS011;9390;51.244;6.982;2022-09-27T10:58:19;11.48;;;3.63;;
18520;SDS011;9390;51.244;6.982;2022-09-27T11:00:58;7.13;;;3.13;;
18520;SDS011;9390;51.244;6.982;2022-09-27T11:03:32;6.97;;;2.65;;
18520;SDS011;9390;51.244;6.982;2022-09-27T11:06:17;8.25;;;2.90;;
18520;SDS011;9390;51.244;6.982;2022-09-27T11:08:50;8.43;;;3.67;;
18520;SDS011;9390;51.244;6.982;2022-09-27T11:11:23;7.93;;;3.45;;
18520;SDS011;9390;51.244;6.982;2022-09-27T11:13:56;8.25;;;3.60;;
18520;SDS011;9390;51.244;6.982;2022-09-27T11:16:35;11.77;;;4.28;;
18520;SDS011;9390;51.244;6.982;2022-09-27T11:19:21;8.40;;;4.10;;
18520;SDS011;9390;51.244;6.982;2022-09-27T11:24:43;9.43;;;4.30;;
18520;SDS011;9390;51.244;6.982;2022-09-27T11:27:25;7.93;;;4.28;;
18520;SDS011;9390;51.244;6.982;2022-09-27T11:30:04;9.20;;;4.20;;
18520;SDS011;9390;51.244;6.982;2022-09-27T11:32:43;11.18;;;4.63;;
18520;SDS011;9390;51.244;6.982;2022-09-27T11:35:24;10.77;;;4.82;;
18520;SDS011;9390;51.244;6.982;2022-09-27T11:38:07;10.50;;;4.68;;
18520;SDS011;9390;51.244;6.982;2022-09-27T11:40:54;9.05;;;4.50;;
18520;SDS011;9390;51.244;6.982;2022-09-27T11:43:46;10.32;;;4.47;;
18520;SDS011;9390;51.244;6.982;2022-09-27T11:46:27;12.30;;;5.03;;
18520;SDS011;9390;51.244;6.982;2022-09-27T11:49:04;11.75;;;4.40;;
18520;SDS011;9390;51.244;6.982;2022-09-27T11:51:52;11.68;;;4.53;;
18520;SDS011;9390;51.244;6.982;2022-09-27T11:54:41;10.27;;;3.95;;
18520;SDS011;9390;51.244;6.982;2022-09-27T11:57:21;6.93;;;3.35;;
18520;SDS011;9390;51.244;6.982;2022-09-27T11:59:59;7.93;;;3.30;;
18520;SDS011;9390;51.244;6.982;2022-09-27T12:05:48;7.00;;;3.80;;
18520;SDS011;9390;51.244;6.982;2022-09-27T12:08:30;9.93;;;3.97;;
18520;SDS011;9390;51.244;6.982;2022-09-27T12:11:08;7.35;;;3.00;;
18520;SDS011;9390;51.244;6.982;2022-09-27T12:13:44;6.82;;;3.03;;
18520;SDS011;9390;51.244;6.982;2022-09-27T12:16:18;7.38;;;2.95;;
18520;SDS011;9390;51.244;6.982;2022-09-27T12:18:50;7.22;;;3.80;;
18520;SDS011;9390;51.244;6.982;2022-09-27T12:21:24;8.60;;;3.08;;
18520;SDS011;9390;51.244;6.982;2022-09-27T12:23:55;7.20;;;3.17;;
18520;SDS011;9390;51.244;6.982;2022-09-27T12:26:28;5.47;;;2.80;;
18520;SDS011;9390;51.244;6.982;2022-09-27T12:29:03;6.85;;;3.20;;
18520;SDS011;9390;51.244;6.982;2022-09-27T12:31:39;6.70;;;3.45;;
18520;SDS011;9390;51.244;6.982;2022-09-27T12:34:14;6.53;;;3.33;;
18520;SDS011;9390;51.244;6.982;2022-09-27T12:36:55;8.05;;;3.47;;
18520;SDS011;9390;51.244;6.982;2022-09-27T12:39:32;10.25;;;4.07;;
18520;SDS011;9390;51.244;6.982;2022-09-27T12:42:13;8.20;;;3.70;;
18520;SDS011;9390;51.244;6.982;2022-09-27T12:44:47;12.82;;;4.30;;
18520;SDS011;9390;51.244;6.982;2022-09-27T12:47:22;10.43;;;4.75;;
18520;SDS011;9390;51.244;6.982;2022-09-27T12:50:02;8.68;;;4.53;;
18520;SDS011;9390;51.244;6.982;2022-09-27T12:52:39;7.40;;;4.22;;
18520;SDS011;9390;51.244;6.982;2022-09-27T12:58:27;10.02;;;4.40;;
18520;SDS011;9390;51.244;6.982;2022-09-27T13:01:13;8.55;;;4.22;;
18520;SDS011;9390;51.244;6.982;2022-09-27T13:03:54;7.50;;;3.72;;
18520;SDS011;9390;51.244;6.982;2022-09-27T13:06:39;7.75;;;3.10;;
18520;SDS011;9390;51.244;6.982;2022-09-27T13:12:15;5.07;;;2.38;;
18520;SDS011;9390;51.244;6.982;2022-09-27T13:14:53;7.43;;;2.88;;
18520;SDS011;9390;51.244;6.982;2022-09-27T13:17:47;6.68;;;2.45;;
18520;SDS011;9390;51.244;6.982;2022-09-27T13:26:44;3.78;;;2.10;;
18520;SDS011;9390;51.244;6.982;2022-09-27T13:29:26;5.28;;;2.38;;
18520;SDS011;9390;51.244;6.982;2022-09-27T13:32:10;4.40;;;2.50;;
18520;SDS011;9390;51.244;6.982;2022-09-27T13:34:45;5.45;;;2.40;;
18520;SDS011;9390;51.244;6.982;2022-09-27T13:40:08;5.28;;;2.50;;
18520;SDS011;9390;51.244;6.982;2022-09-27T13:42:45;3.90;;;2.13;;
18520;SDS011;9390;51.244;6.982;2022-09-27T13:45:25;5.07;;;2.00;;
18520;SDS011;9390;51.244;6.982;2022-09-27T13:47:58;5.50;;;2.20;;
18520;SDS011;9390;51.244;6.982;2022-09-27T13:50:32;4.50;;;2.28;;
18520;SDS011;9390;51.244;6.982;2022-09-27T13:53:13;3.28;;;1.80;;
18520;SDS011;9390;51.244;6.982;2022-09-27T13:55:50;4.03;;;1.90;;
18520;SDS011;9390;51.244;6.982;2022-09-27T14:01:14;3.08;;;1.83;;
18520;SDS011;9390;51.244;6.982;2022-09-27T14:03:49;4.75;;;1.85;;
18520;SDS011;9390;51.244;6.982;2022-09-27T14:06:23;3.15;;;1.63;;
18520;SDS011;9390;51.244;6.982;2022-09-27T14:08:57;3.70;;;1.70;;
18520;SDS011;9390;51.244;6.982;2022-09-27T14:11:32;2.28;;;1.50;;
18520;SDS011;9390;51.244;6.982;2022-09-27T14:14:06;4.18;;;1.60;;
18520;SDS011;9390;51.244;6.982;2022-09-27T14:16:44;2.40;;;1.08;;
18520;SDS011;9390;51.244;6.982;2022-09-27T14:19:17;3.30;;;1.60;;
18520;SDS011;9390;51.244;6.982;2022-09-27T14:21:50;2.55;;;1.00;;
18520;SDS011;9390;51.244;6.982;2022-09-27T14:24:23;2.33;;;1.17;;
18520;SDS011;9390;51.244;6.982;2022-09-27T14:29:53;3.60;;;1.60;;
18520;SDS011;9390;51.244;6.982;2022-09-27T14:32:27;3.05;;;1.40;;
18520;SDS011;9390;51.244;6.982;2022-09-27T14:35:02;3.80;;;1.33;;
18520;SDS011;9390;51.244;6.982;2022-09-27T14:37:36;4.05;;;1.20;;
18520;SDS011;9390;51.244;6.982;2022-09-27T14:40:17;2.53;;;1.13;;
18520;SDS011;9390;51.244;6.982;2022-09-27T14:42:51;2.90;;;0.90;;
18520;SDS011;9390;51.244;6.982;2022-09-27T14:45:26;1.40;;;0.98;;
18520;SDS011;9390;51.244;6.982;2022-09-27T14:48:00;2.88;;;0.80;;
18520;SDS011;9390;51.244;6.982;2022-09-27T14:50:32;4.07;;;1.10;;
18520;SDS011;9390;51.244;6.982;2022-09-27T14:53:18;1.80;;;1.00;;
18520;SDS011;9390;51.244;6.982;2022-09-27T14:55:51;1.80;;;1.20;;
18520;SDS011;9390;51.244;6.982;2022-09-27T14:58:23;2.38;;;1.00;;
18520;SDS011;9390;51.244;6.982;2022-09-27T15:00:56;4.90;;;1.30;;
18520;SDS011;9390;51.244;6.982;2022-09-27T15:03:29;3.67;;;1.50;;
18520;SDS011;9390;51.244;6.982;2022-09-27T15:06:02;3.75;;;1.70;;
18520;SDS011;9390;51.244;6.982;2022-09-27T15:08:33;2.80;;;1.30;;
18520;SDS011;9390;51.244;6.982;2022-09-27T15:11:05;5.68;;;1.27;;
18520;SDS011;9390;51.244;6.982;2022-09-27T15:13:39;2.60;;;1.38;;
18520;SDS011;9390;51.244;6.982;2022-09-27T15:16:16;6.30;;;1.65;;
18520;SDS011;9390;51.244;6.982;2022-09-27T15:18:49;3.10;;;1.50;;
18520;SDS011;9390;51.244;6.982;2022-09-27T15:21:32;5.95;;;2.03;;
18520;SDS011;9390;51.244;6.982;2022-09-27T15:24:05;7.25;;;1.95;;
18520;SDS011;9390;51.244;6.982;2022-09-27T15:27:13;3.95;;;1.73;;
18520;SDS011;9390;51.244;6.982;2022-09-27T15:29:46;7.13;;;1.50;;
18520;SDS011;9390;51.244;6.982;2022-09-27T15:34:52;5.47;;;1.75;;
18520;SDS011;9390;51.244;6.982;2022-09-27T15:37:26;7.10;;;1.20;;
18520;SDS011;9390;51.244;6.982;2022-09-27T15:39:59;4.60;;;1.35;;
18520;SDS011;9390;51.244;6.982;2022-09-27T15:43:03;4.20;;;1.83;;
18520;SDS011;9390;51.244;6.982;2022-09-27T15:45:35;6.82;;;1.88;;
18520;SDS011;9390;51.244;6.982;2022-09-27T15:48:11;6.78;;;1.80;;
18520;SDS011;9390;51.244;6.982;2022-09-27T15:50:44;10.15;;;2.10;;
18520;SDS011;9390;51.244;6.982;2022-09-27T15:56:42;8.25;;;2.17;;
18520;SDS011;9390;51.244;6.982;2022-09-27T15:59:15;6.10;;;2.30;;
18520;SDS011;9390;51.244;6.982;2022-09-27T16:01:50;6.38;;;2.35;;
18520;SDS011;9390;51.244;6.982;2022-09-27T16:04:23;7.90;;;2.53;;
18520;SDS011;9390;51.244;6.982;2022-09-27T16:06:55;5.90;;;2.20;;
18520;SDS011;9390;51.244;6.982;2022-09-27T16:09:29;5.50;;;2.10;;
18520;SDS011;9390;51.244;6.982;2022-09-27T16:12:01;6.47;;;2.40;;
18520;SDS011;9390;51.244;6.982;2022-09-27T16:14:32;8.07;;;2.60;;
18520;SDS011;9390;51.244;6.982;2022-09-27T16:17:03;11.20;;;2.20;;
18520;SDS011;9390;51.244;6.982;2022-09-27T16:19:36;10.35;;;2.45;;